tempnate.com alexa rank chart, tempnate.com alexa rank daily changes

tempnate.com alexa rank chart, tempnate.com alexa rank daily changes

tempnate.com
Actual rank:
737 874

RANK HISTORY

Date Rank Diff
2017/08/21 737 874 -3 957
2017/08/20 741 831 -1 315
2017/08/19 743 146 -825
2017/08/18 743 971 +3 515
2017/08/17 740 456 -95 402
2017/08/16 835 858 +89 742
2017/08/15 746 116 -4 422
2017/08/14 750 538 -4 998
2017/08/13 755 536 -118 712
2017/08/12 874 248 -2 402
2017/08/11 876 650 +3 064
2017/08/10 873 586 +3 512
2017/08/09 870 074 +233
2017/08/08 869 841 +110 119
2017/08/07 759 722 -153 947
2017/08/06 913 669 -35 345
2017/08/05 949 014 -856
2017/08/04 949 870 +3 486
2017/08/03 946 384 +4 116
2017/08/02 942 268 +942
2017/08/01 941 326 +19 872
2017/07/31 921 454 -5 753
2017/07/30 927 207 +264 297
2017/07/22 662 910 -682
2017/07/21 663 592 -355
2017/07/20 663 947 +3 035
2017/07/19 660 912 +3 164
2017/07/18 657 748 -2 826
2017/07/17 660 574 +57 704
2017/07/16 602 870 -64 390
2017/07/15 667 260 -485
2017/07/14 667 745 +60 665
2017/07/13 607 080 +2 751
2017/07/12 604 329 +3 419
2017/07/11 600 910 -1 756
2017/07/10 602 666 -2 640
2017/07/09 605 306 -949
2017/07/08 606 255 -70 367
2017/07/07 676 622 +114 157
2017/07/06 562 465 -274
2017/07/05 562 739 +2 544
2017/07/04 560 195 +39 797
2017/07/03 520 398 -2 228
2017/07/02 522 626 +3 928
2017/07/01 518 698 +54 872
2017/06/30 463 826 +1 707
2017/06/29 462 119 +2 293
2017/06/28 459 826 +1 066
2017/06/27 458 760 -1 403
2017/06/26 460 163 -1 980
2017/06/25 462 143 -748
2017/06/24 462 891 -29 000
2017/06/23 491 891 -223 333
2017/06/22 715 224

WIDGET FOR YOUR SITE

DOMAINS WITH THE NEAREST RANK

Domain Rank
moe-more.ru 737 869
negareno.com 737 870
hw-topsales.com 737 871
iboysoft.com 737 872
tradeworld.net 737 873
tempnate.com 737 874
peaceville.com 737 875
zyciepodpalmami.pl 737 876
townhomesofaddison.com 737 877
cars.co.ug 737 878
education-ambchine.org 737 879

DOMAINS WITH THE NEAREST RANK BY TLD .com

Domain Rank
hooplanow.com 737 866
frontiertown.com 737 868
negareno.com 737 870
hw-topsales.com 737 871
iboysoft.com 737 872
tempnate.com 737 874
peaceville.com 737 875
townhomesofaddison.com 737 877
porno-indian.com 737 880
skatereview.com 737 885
ipv6leak.com 737 886